createdAt,value
2023-03-08T00:01:32.599Z,2.50
2023-03-08T00:04:03.181Z,0.70
2023-03-08T00:06:32.467Z,4.07
2023-03-08T00:09:03.401Z,2.30
2023-03-08T00:11:32.610Z,2.20
2023-03-08T00:14:03.290Z,17.92
2023-03-08T00:16:32.398Z,5.00
2023-03-08T00:19:02.808Z,1.42
2023-03-08T00:21:31.784Z,5.00
2023-03-08T00:24:00.806Z,2.80
2023-03-08T00:26:29.801Z,2.17
2023-03-08T00:28:58.893Z,2.72
2023-03-08T00:33:58.842Z,4.18
2023-03-08T00:36:29.330Z,2.28
2023-03-08T00:38:58.772Z,6.53
2023-03-08T00:41:27.744Z,1.63
2023-03-08T00:43:56.831Z,4.30
2023-03-08T00:46:27.235Z,3.03
2023-03-08T00:48:56.222Z,3.15
2023-03-08T00:51:25.204Z,4.93
2023-03-08T00:53:56.631Z,3.38
2023-03-08T00:56:25.657Z,3.30
2023-03-08T00:58:54.646Z,2.40
2023-03-08T01:01:23.929Z,3.00
2023-03-08T01:03:55.289Z,1.80
2023-03-08T01:06:25.591Z,2.80
2023-03-08T01:08:56.067Z,4.65
2023-03-08T01:11:27.841Z,5.35
2023-03-08T01:13:57.243Z,3.33
2023-03-08T01:16:29.027Z,1.73
2023-03-08T01:18:59.669Z,1.67
2023-03-08T01:21:29.789Z,3.97
2023-03-08T01:24:00.564Z,6.45
2023-03-08T01:26:30.699Z,2.53
2023-03-08T01:28:59.832Z,4.32
2023-03-08T01:31:31.224Z,1.75
2023-03-08T01:34:01.991Z,2.47
2023-03-08T01:36:31.191Z,4.28
2023-03-08T01:39:03.912Z,2.03
2023-03-08T01:41:33.651Z,3.00
2023-03-08T01:44:03.464Z,3.92
2023-03-08T01:46:33.597Z,3.28
2023-03-08T01:49:15.631Z,1.02
2023-03-08T01:51:47.585Z,3.63
2023-03-08T01:54:21.105Z,1.63
2023-03-08T01:56:53.683Z,5.50
2023-03-08T01:59:24.244Z,1.45
2023-03-08T02:01:53.710Z,4.07
2023-03-08T02:04:23.915Z,2.07
2023-03-08T02:06:53.136Z,2.20
2023-03-08T02:09:26.621Z,3.83
2023-03-08T02:12:00.289Z,1.95
2023-03-08T02:14:30.196Z,3.30
2023-03-08T02:16:59.556Z,3.50
2023-03-08T02:19:35.917Z,4.25
2023-03-08T02:22:12.890Z,2.38
2023-03-08T02:24:43.606Z,4.22
2023-03-08T02:27:19.015Z,1.83
2023-03-08T02:29:48.476Z,2.35
2023-03-08T02:32:18.028Z,2.40
2023-03-08T02:34:47.173Z,2.72
2023-03-08T02:37:16.282Z,2.38
2023-03-08T02:39:46.735Z,2.88
2023-03-08T02:42:15.795Z,3.13
2023-03-08T02:44:45.301Z,3.65
2023-03-08T02:47:14.300Z,2.65
2023-03-08T02:49:43.375Z,0.70
2023-03-08T02:52:12.418Z,2.40
2023-03-08T02:54:41.417Z,1.98
2023-03-08T02:57:11.902Z,3.35
2023-03-08T02:59:41.010Z,5.72
2023-03-08T03:02:10.148Z,3.35
2023-03-08T03:04:39.557Z,2.05
2023-03-08T03:07:08.621Z,2.13
2023-03-08T03:09:38.663Z,5.40
2023-03-08T03:12:08.256Z,1.83
2023-03-08T03:14:42.264Z,4.15
2023-03-08T03:17:11.867Z,3.08
2023-03-08T03:19:41.145Z,0.60
2023-03-08T03:22:10.123Z,2.92
2023-03-08T03:24:39.129Z,4.85
2023-03-08T03:27:09.637Z,2.72
2023-03-08T03:29:41.916Z,2.15
2023-03-08T03:32:15.762Z,1.90
2023-03-08T03:34:45.572Z,2.55
2023-03-08T03:37:14.992Z,3.28
2023-03-08T03:39:44.176Z,1.20
2023-03-08T03:42:16.264Z,4.65
2023-03-08T03:44:54.195Z,1.80
2023-03-08T03:47:24.185Z,2.03
2023-03-08T03:49:58.128Z,1.75
2023-03-08T03:52:29.788Z,5.50
2023-03-08T03:55:03.978Z,4.43
2023-03-08T03:57:33.244Z,4.35
2023-03-08T04:00:06.161Z,2.08
2023-03-08T04:02:43.098Z,5.30
2023-03-08T04:05:15.465Z,5.28
2023-03-08T04:07:49.568Z,4.18
2023-03-08T04:10:19.285Z,7.63
2023-03-08T04:12:50.104Z,4.13
2023-03-08T04:15:22.061Z,2.67
2023-03-08T04:17:53.093Z,3.22
2023-03-08T04:20:25.160Z,2.08
2023-03-08T04:22:59.506Z,3.08
2023-03-08T04:25:34.584Z,2.28
2023-03-08T04:28:06.038Z,2.63
2023-03-08T04:30:36.664Z,4.75
2023-03-08T04:33:07.919Z,2.03
2023-03-08T04:35:45.232Z,3.20
2023-03-08T04:38:15.412Z,3.15
2023-03-08T04:41:10.453Z,2.78
2023-03-08T04:44:02.868Z,2.28
2023-03-08T04:46:39.391Z,1.42
2023-03-08T04:51:43.233Z,3.10
2023-03-08T04:54:13.857Z,3.65
2023-03-08T04:56:48.777Z,1.10
2023-03-08T04:59:18.993Z,2.63
2023-03-08T05:01:49.640Z,3.08
2023-03-08T05:04:19.086Z,2.75
2023-03-08T05:06:49.252Z,8.18
2023-03-08T05:09:24.084Z,2.20
2023-03-08T05:11:54.844Z,1.48
2023-03-08T05:14:24.944Z,1.98
2023-03-08T05:16:57.662Z,2.88
2023-03-08T05:19:27.139Z,0.60
2023-03-08T05:21:56.943Z,2.58
2023-03-08T05:24:27.377Z,2.72
2023-03-08T05:26:58.371Z,3.65
2023-03-08T05:29:27.473Z,1.23
2023-03-08T05:31:59.040Z,1.88
2023-03-08T05:34:28.725Z,2.85
2023-03-08T05:36:59.866Z,2.97
2023-03-08T05:39:30.348Z,0.90
2023-03-08T05:42:08.650Z,1.95
2023-03-08T05:44:42.118Z,4.03
2023-03-08T05:47:15.250Z,1.85
2023-03-08T05:49:44.468Z,4.78
2023-03-08T05:52:14.673Z,2.33
2023-03-08T05:54:44.923Z,0.82
2023-03-08T05:57:18.705Z,3.20
2023-03-08T05:59:48.971Z,5.53
2023-03-08T06:02:22.902Z,2.10
2023-03-08T06:04:55.508Z,2.35
2023-03-08T06:10:01.209Z,4.00
2023-03-08T06:12:30.236Z,4.28
2023-03-08T06:15:05.529Z,3.22
2023-03-08T06:17:39.091Z,1.48
2023-03-08T06:20:09.465Z,3.42
2023-03-08T06:22:43.239Z,3.63
2023-03-08T06:25:13.560Z,2.53
2023-03-08T06:27:42.656Z,0.98
2023-03-08T06:30:21.662Z,3.80
2023-03-08T06:32:52.121Z,4.57
2023-03-08T06:35:21.281Z,3.40
2023-03-08T06:37:56.362Z,1.08
2023-03-08T06:40:25.428Z,1.65
2023-03-08T06:42:54.650Z,4.10
2023-03-08T06:45:23.942Z,2.95
2023-03-08T06:47:54.676Z,3.00
2023-03-08T06:50:23.975Z,0.77
2023-03-08T06:52:53.151Z,7.80
2023-03-08T06:55:31.004Z,3.53
2023-03-08T06:58:00.115Z,2.33
2023-03-08T07:00:29.458Z,5.00
2023-03-08T07:03:00.102Z,3.05
2023-03-08T07:05:29.536Z,1.48
2023-03-08T07:07:58.716Z,2.40
2023-03-08T07:10:27.879Z,3.90
2023-03-08T07:12:56.935Z,2.10
2023-03-08T07:15:26.617Z,3.92
2023-03-08T07:17:57.517Z,1.15
2023-03-08T07:20:28.700Z,3.53
2023-03-08T07:25:26.562Z,4.38
2023-03-08T07:27:55.769Z,5.65
2023-03-08T07:30:25.041Z,4.80
2023-03-08T07:32:54.983Z,3.60
2023-03-08T07:35:24.704Z,5.05
2023-03-08T07:37:55.213Z,1.90
2023-03-08T07:40:24.614Z,4.45
2023-03-08T07:42:53.731Z,5.05
2023-03-08T07:45:45.665Z,4.50
2023-03-08T07:48:14.737Z,5.15
2023-03-08T07:50:43.856Z,2.92
2023-03-08T07:53:14.280Z,5.93
2023-03-08T07:55:43.275Z,6.18
2023-03-08T07:58:12.278Z,2.42
2023-03-08T08:00:41.267Z,2.28
2023-03-08T08:03:10.441Z,3.08
2023-03-08T08:05:39.666Z,2.70
2023-03-08T08:08:09.366Z,7.78
2023-03-08T08:10:39.810Z,7.10
2023-03-08T08:13:08.954Z,2.72
2023-03-08T08:15:38.059Z,3.17
2023-03-08T08:18:07.508Z,2.47
2023-03-08T08:20:36.702Z,2.63
2023-03-08T08:23:07.735Z,6.00
2023-03-08T08:25:36.797Z,6.82
2023-03-08T08:28:07.406Z,5.75
2023-03-08T08:30:39.410Z,4.20
2023-03-08T08:33:08.485Z,2.90
2023-03-08T08:35:43.446Z,4.50
2023-03-08T08:38:12.807Z,3.63
2023-03-08T08:40:41.969Z,3.72
2023-03-08T08:43:12.442Z,3.80
2023-03-08T08:45:45.632Z,3.83
2023-03-08T08:48:15.512Z,2.75
2023-03-08T08:50:44.765Z,5.25
2023-03-08T08:53:13.852Z,3.17
2023-03-08T08:55:45.214Z,1.90
2023-03-08T08:58:16.310Z,4.97
2023-03-08T09:00:48.407Z,3.17
2023-03-08T09:03:17.638Z,2.25
2023-03-08T09:05:46.844Z,6.40
2023-03-08T09:08:16.129Z,2.47
2023-03-08T09:10:45.341Z,5.05
2023-03-08T09:13:16.123Z,3.78
2023-03-08T09:15:45.182Z,2.78
2023-03-08T09:18:14.346Z,5.38
2023-03-08T09:20:43.504Z,3.20
2023-03-08T09:23:12.644Z,5.93
2023-03-08T09:25:41.782Z,8.77
2023-03-08T09:28:12.266Z,9.20
2023-03-08T09:30:42.774Z,8.57
2023-03-08T09:33:11.831Z,6.97
2023-03-08T09:35:40.934Z,5.90
2023-03-08T09:38:10.044Z,7.13
2023-03-08T09:40:49.458Z,7.50
2023-03-08T09:43:27.346Z,6.18
2023-03-08T09:45:57.896Z,8.98
2023-03-08T09:48:30.846Z,7.50
2023-03-08T09:51:05.004Z,6.13
2023-03-08T09:53:37.049Z,9.40
2023-03-08T09:56:13.089Z,12.18
2023-03-08T09:58:45.137Z,9.10
2023-03-08T10:01:25.482Z,12.82
2023-03-08T10:04:15.076Z,9.13
2023-03-08T10:06:49.279Z,14.65
2023-03-08T10:09:31.844Z,14.35
2023-03-08T10:12:13.683Z,13.20
2023-03-08T10:14:46.216Z,12.32
2023-03-08T10:17:21.312Z,13.80
2023-03-08T10:19:55.601Z,23.25
2023-03-08T10:22:28.475Z,12.70
2023-03-08T10:25:02.068Z,15.88
2023-03-08T10:27:35.821Z,16.27
2023-03-08T10:30:15.214Z,15.88
2023-03-08T10:32:48.342Z,12.48
2023-03-08T10:35:18.820Z,16.80
2023-03-08T10:37:52.672Z,18.48
2023-03-08T10:40:23.125Z,14.77
2023-03-08T10:42:58.022Z,17.08
2023-03-08T10:45:28.704Z,14.98
2023-03-08T10:48:01.028Z,16.05
2023-03-08T10:50:32.377Z,19.63
2023-03-08T10:53:11.575Z,15.68
2023-03-08T10:55:45.522Z,13.23
2023-03-08T10:58:36.532Z,14.20
2023-03-08T11:01:08.106Z,14.13
2023-03-08T11:03:39.612Z,17.38
2023-03-08T11:06:16.407Z,13.30
2023-03-08T11:08:54.750Z,12.13
2023-03-08T11:11:24.430Z,16.70
2023-03-08T11:13:54.624Z,15.80
2023-03-08T11:16:38.466Z,20.13
2023-03-08T11:19:32.457Z,15.00
2023-03-08T11:22:11.452Z,15.38
2023-03-08T11:24:53.602Z,13.40
2023-03-08T11:27:33.367Z,11.07
2023-03-08T11:30:15.310Z,11.52
2023-03-08T11:33:01.859Z,13.05
2023-03-08T11:35:39.069Z,14.15
2023-03-08T11:38:13.577Z,18.88
2023-03-08T11:40:53.024Z,13.57
2023-03-08T11:43:35.161Z,23.10
2023-03-08T11:46:12.994Z,17.98
2023-03-08T11:48:53.999Z,15.25
2023-03-08T11:51:32.386Z,20.10
2023-03-08T11:54:16.335Z,14.77
2023-03-08T11:56:52.381Z,17.20
2023-03-08T11:59:28.384Z,17.48
2023-03-08T12:02:02.724Z,16.05
2023-03-08T12:04:37.157Z,13.88
2023-03-08T12:07:14.527Z,18.40
2023-03-08T12:09:52.513Z,20.10
2023-03-08T12:12:27.656Z,16.08
2023-03-08T12:15:00.890Z,21.17
2023-03-08T12:17:40.066Z,14.23
2023-03-08T12:20:15.689Z,18.33
2023-03-08T12:22:51.158Z,15.27
2023-03-08T12:25:27.904Z,19.90
2023-03-08T12:28:04.217Z,19.45
2023-03-08T12:30:50.731Z,19.15
2023-03-08T12:33:20.447Z,17.58
2023-03-08T12:35:55.379Z,11.88
2023-03-08T12:38:36.667Z,13.35
2023-03-08T12:43:38.730Z,13.97
2023-03-08T12:46:10.231Z,13.77
2023-03-08T12:48:42.264Z,14.70
2023-03-08T12:51:24.120Z,14.57
2023-03-08T12:54:03.028Z,12.25
2023-03-08T12:56:35.672Z,15.32
2023-03-08T12:59:30.008Z,13.35
2023-03-08T13:02:05.363Z,11.65
2023-03-08T13:04:41.392Z,13.68
2023-03-08T13:07:19.994Z,12.57
2023-03-08T13:09:56.133Z,13.50
2023-03-08T13:12:41.354Z,16.58
2023-03-08T13:15:23.267Z,13.68
2023-03-08T13:18:06.296Z,12.38
2023-03-08T13:20:52.219Z,14.77
2023-03-08T13:23:29.092Z,10.95
2023-03-08T13:26:15.786Z,15.48
2023-03-08T13:28:48.273Z,15.48
2023-03-08T13:31:19.206Z,11.05
2023-03-08T13:33:50.428Z,9.55
2023-03-08T13:38:58.786Z,14.55
2023-03-08T13:41:37.481Z,12.82
2023-03-08T13:44:08.329Z,11.13
2023-03-08T13:46:42.602Z,11.80
2023-03-08T13:49:16.513Z,10.85
2023-03-08T13:51:48.735Z,13.57
2023-03-08T13:54:26.802Z,10.27
2023-03-08T13:56:57.988Z,11.05
2023-03-08T14:01:56.814Z,13.02
2023-03-08T14:04:27.757Z,12.43
2023-03-08T14:06:58.567Z,13.60
2023-03-08T14:09:28.554Z,12.13
2023-03-08T14:12:02.066Z,12.23
2023-03-08T14:14:33.820Z,9.65
2023-03-08T14:17:03.411Z,9.88
2023-03-08T14:19:35.063Z,15.60
2023-03-08T14:22:11.507Z,12.82
2023-03-08T14:24:42.056Z,13.70
2023-03-08T14:30:13.080Z,7.25
2023-03-08T14:32:43.010Z,9.13
2023-03-08T14:35:21.296Z,12.10
2023-03-08T14:37:55.962Z,7.60
2023-03-08T14:40:29.763Z,7.88
2023-03-08T14:43:02.345Z,7.07
2023-03-08T14:45:36.103Z,6.78
2023-03-08T14:48:24.579Z,7.03
2023-03-08T14:50:56.627Z,8.75
2023-03-08T14:53:30.392Z,7.90
2023-03-08T14:55:59.919Z,10.30
2023-03-08T14:58:31.217Z,10.52
2023-03-08T15:01:03.477Z,11.68
2023-03-08T15:03:32.988Z,13.57
2023-03-08T15:06:08.763Z,8.70
2023-03-08T15:08:38.267Z,9.27
2023-03-08T15:11:08.532Z,12.15
2023-03-08T15:13:37.623Z,11.17
2023-03-08T15:16:13.228Z,18.85
2023-03-08T15:18:43.675Z,13.18
2023-03-08T15:21:16.177Z,6.47
2023-03-08T15:23:47.582Z,9.38
2023-03-08T15:26:23.396Z,5.90
2023-03-08T15:28:52.455Z,6.55
2023-03-08T15:31:22.987Z,9.95
2023-03-08T15:33:52.151Z,10.43
2023-03-08T15:36:21.274Z,8.00
2023-03-08T15:38:50.355Z,9.23
2023-03-08T15:41:19.800Z,5.55
2023-03-08T15:43:48.905Z,6.82
2023-03-08T15:46:18.114Z,7.40
2023-03-08T15:48:51.166Z,9.95
2023-03-08T15:51:22.344Z,10.40
2023-03-08T15:53:51.399Z,8.05
2023-03-08T15:56:20.514Z,11.43
2023-03-08T15:58:49.501Z,13.40
2023-03-08T16:01:18.674Z,16.48
2023-03-08T16:03:49.233Z,14.30
2023-03-08T16:06:19.400Z,13.25
2023-03-08T16:08:48.544Z,14.32
2023-03-08T16:11:21.228Z,13.30
2023-03-08T16:13:51.841Z,13.50
2023-03-08T16:16:24.467Z,14.07
2023-03-08T16:18:59.269Z,15.32
2023-03-08T16:21:28.286Z,11.10
2023-03-08T16:23:59.627Z,16.42
2023-03-08T16:26:28.716Z,10.40
2023-03-08T16:28:57.857Z,18.88
2023-03-08T16:31:27.091Z,17.23
2023-03-08T16:33:57.542Z,12.15
2023-03-08T16:36:26.659Z,13.23
2023-03-08T16:38:56.634Z,14.27
2023-03-08T16:41:26.378Z,16.35
2023-03-08T16:43:56.852Z,13.52
2023-03-08T16:46:26.056Z,20.67
2023-03-08T16:48:56.104Z,21.02
2023-03-08T16:51:28.935Z,19.45
2023-03-08T16:53:58.034Z,16.00
2023-03-08T16:56:29.476Z,20.63
2023-03-08T16:59:01.343Z,18.75
2023-03-08T17:01:31.405Z,15.38
2023-03-08T17:04:00.998Z,17.88
2023-03-08T17:06:33.064Z,17.13
2023-03-08T17:09:02.505Z,17.02
2023-03-08T17:11:34.071Z,21.58
2023-03-08T17:14:05.571Z,21.05
2023-03-08T17:16:35.688Z,18.90
2023-03-08T17:19:07.264Z,15.25
2023-03-08T17:21:38.558Z,16.70
2023-03-08T17:24:10.521Z,14.20
2023-03-08T17:26:43.269Z,12.65
2023-03-08T17:29:12.824Z,14.18
2023-03-08T17:31:42.921Z,15.73
2023-03-08T17:34:12.037Z,16.58
2023-03-08T17:36:42.622Z,22.85
2023-03-08T17:39:11.648Z,17.95
2023-03-08T17:41:40.740Z,13.73
2023-03-08T17:44:09.818Z,16.02
2023-03-08T17:46:39.297Z,12.65
2023-03-08T17:49:08.641Z,14.85
2023-03-08T17:51:38.250Z,19.67
2023-03-08T17:54:09.498Z,18.83
2023-03-08T17:56:40.965Z,17.10
2023-03-08T17:59:13.864Z,20.05
2023-03-08T18:01:43.289Z,20.80
2023-03-08T18:04:12.513Z,18.80
2023-03-08T18:06:43.624Z,22.02
2023-03-08T18:09:16.053Z,19.77
2023-03-08T18:11:45.400Z,22.70
2023-03-08T18:14:16.195Z,25.83
2023-03-08T18:16:45.596Z,17.60
2023-03-08T18:19:14.810Z,85.85
2023-03-08T18:21:43.970Z,47.63
2023-03-08T18:24:14.796Z,82.60
2023-03-08T18:26:44.012Z,26.10
2023-03-08T18:29:14.797Z,20.88
2023-03-08T18:31:44.028Z,33.42
2023-03-08T18:34:13.171Z,37.05
2023-03-08T18:36:42.495Z,24.58
2023-03-08T18:39:16.126Z,21.05
2023-03-08T18:41:45.285Z,31.35
2023-03-08T18:44:14.542Z,33.35
2023-03-08T18:46:43.746Z,28.48
2023-03-08T18:49:14.080Z,31.85
2023-03-08T18:51:44.256Z,26.77
2023-03-08T18:54:15.745Z,27.33
2023-03-08T18:56:46.198Z,26.50
2023-03-08T18:59:15.544Z,28.13
2023-03-08T19:01:45.396Z,37.28
2023-03-08T19:04:14.599Z,42.38
2023-03-08T19:06:44.277Z,30.33
2023-03-08T19:09:16.063Z,28.40
2023-03-08T19:11:48.269Z,42.08
2023-03-08T19:14:18.901Z,29.42
2023-03-08T19:16:48.144Z,32.72
2023-03-08T19:19:18.236Z,28.00
2023-03-08T19:21:49.886Z,29.85
2023-03-08T19:24:21.344Z,35.25
2023-03-08T19:26:53.353Z,33.55
2023-03-08T19:29:24.051Z,37.65
2023-03-08T19:31:55.624Z,32.50
2023-03-08T19:34:26.723Z,53.53
2023-03-08T19:36:57.056Z,45.05
2023-03-08T19:39:28.803Z,31.15
2023-03-08T19:44:33.836Z,49.35
2023-03-08T19:47:04.718Z,51.95
2023-03-08T19:49:35.289Z,34.45
2023-03-08T19:52:06.720Z,23.83
2023-03-08T19:54:36.148Z,28.48
2023-03-08T19:57:07.564Z,44.35
2023-03-08T19:59:37.693Z,40.58
2023-03-08T20:02:07.654Z,37.08
2023-03-08T20:04:37.091Z,31.13
2023-03-08T20:07:06.150Z,27.98
2023-03-08T20:09:35.267Z,36.45
2023-03-08T20:12:04.581Z,40.05
2023-03-08T20:14:35.111Z,29.00
2023-03-08T20:17:05.235Z,55.80
2023-03-08T20:19:35.793Z,33.43
2023-03-08T20:22:06.096Z,39.33
2023-03-08T20:24:35.278Z,31.98
2023-03-08T20:27:05.284Z,36.17
2023-03-08T20:29:35.891Z,35.67
2023-03-08T20:32:05.130Z,32.45
2023-03-08T20:34:34.222Z,26.98
2023-03-08T20:37:03.307Z,40.92
2023-03-08T20:39:32.506Z,47.13
2023-03-08T20:42:01.742Z,33.88
2023-03-08T20:44:30.817Z,30.83
2023-03-08T20:47:01.541Z,23.35
2023-03-08T20:49:30.587Z,29.17
2023-03-08T20:51:59.948Z,23.83
2023-03-08T20:54:29.310Z,33.58
2023-03-08T20:56:59.148Z,25.55
2023-03-08T20:59:28.738Z,26.08
2023-03-08T21:01:58.994Z,26.10
2023-03-08T21:04:29.554Z,32.78
2023-03-08T21:06:58.690Z,28.00
2023-03-08T21:09:27.854Z,28.30
2023-03-08T21:11:56.938Z,26.52
2023-03-08T21:14:26.279Z,28.42
2023-03-08T21:16:55.273Z,27.90
2023-03-08T21:19:24.709Z,29.05
2023-03-08T21:21:55.141Z,25.38
2023-03-08T21:24:24.393Z,26.73
2023-03-08T21:26:53.935Z,24.48
2023-03-08T21:29:23.754Z,30.90
2023-03-08T21:31:54.228Z,28.10
2023-03-08T21:34:23.485Z,31.60
2023-03-08T21:36:52.614Z,29.40
2023-03-08T21:39:23.040Z,30.70
2023-03-08T21:41:53.078Z,27.38
2023-03-08T21:44:22.503Z,28.65
2023-03-08T21:46:52.635Z,26.63
2023-03-08T21:49:24.434Z,22.53
2023-03-08T21:51:55.038Z,20.13
2023-03-08T21:54:26.690Z,23.38
2023-03-08T21:56:57.228Z,17.63
2023-03-08T21:59:30.563Z,24.35
2023-03-08T22:01:59.802Z,27.83
2023-03-08T22:04:29.372Z,26.15
2023-03-08T22:06:58.678Z,24.65
2023-03-08T22:09:29.371Z,36.47
2023-03-08T22:11:59.476Z,21.63
2023-03-08T22:14:28.952Z,24.67
2023-03-08T22:16:58.107Z,23.20
2023-03-08T22:19:27.336Z,29.90
2023-03-08T22:21:58.553Z,26.50
2023-03-08T22:26:57.833Z,24.35
2023-03-08T22:29:26.917Z,30.55
2023-03-08T22:31:56.138Z,21.75
2023-03-08T22:34:25.200Z,20.90
2023-03-08T22:36:54.669Z,22.48
2023-03-08T22:39:23.775Z,24.60
2023-03-08T22:41:54.515Z,32.97
2023-03-08T22:44:23.954Z,30.60
2023-03-08T22:46:53.020Z,19.63
2023-03-08T22:49:22.355Z,22.75
2023-03-08T22:51:52.526Z,20.13
2023-03-08T22:54:23.987Z,25.10
2023-03-08T22:56:54.984Z,26.23
2023-03-08T22:59:25.806Z,25.05
2023-03-08T23:01:55.392Z,25.20
2023-03-08T23:04:24.569Z,21.30
2023-03-08T23:06:53.766Z,19.83
2023-03-08T23:09:23.404Z,25.10
2023-03-08T23:11:54.106Z,28.25
2023-03-08T23:14:23.406Z,25.45
2023-03-08T23:16:52.850Z,36.25
2023-03-08T23:19:23.219Z,47.13
2023-03-08T23:21:52.489Z,16.60
2023-03-08T23:24:21.775Z,61.75
2023-03-08T23:26:54.248Z,37.00
2023-03-08T23:29:24.964Z,42.92
2023-03-08T23:31:54.243Z,30.00
2023-03-08T23:34:23.824Z,29.00
2023-03-08T23:36:52.954Z,21.02
2023-03-08T23:39:22.572Z,24.00
2023-03-08T23:41:51.894Z,18.63
2023-03-08T23:44:21.148Z,29.60
2023-03-08T23:46:51.644Z,37.47
2023-03-08T23:49:20.834Z,43.72
2023-03-08T23:51:49.892Z,30.48
2023-03-08T23:54:19.085Z,38.42
2023-03-08T23:56:48.316Z,75.43
2023-03-08T23:59:19.521Z,66.10
